Página principal
Imagens de satélite Previsões 15 diasClimaMeteorologia maritima Ciclones Descargas eléctricas AeroportosFAQ Notícias Sobre
Tempo : Europa África América do Norte América do Sul Ásia Austrália-Oceania Outros
Línguas Contacto

Cambridge, Inglaterra

latitude: 52-12N, longitude: 000-11E, altura: 15 m


METAR: EGSC 012020Z 22002KT 9999 FEW031 17/13 Q1027
TAF: EGSC 011702Z 0118/0121 25009KT 9999 SCT030

Hora: 23:18 (22:18 UTC)

Observação actual do tempo

O boletim foi feito há 01 hora e 58 minutos, às 20:20 UTC  
Vento 02 kt de sudoeste
Temperatura 17°C
Humidade 77%
Pressão 1027 hPa
Visibilidade 10 km ou mais
Poucas nuvens a uma altura de 3100 ft

Mudar unidades

Previsão

O boletim foi feito há 05 horas e 16 minutos, às 17:02 UTC  
Previsão válida de 01 às 18 UTC a 01 às 21 UTC
Vento 09 kt de oes-sudoeste
Visibilidade 10 km ou mais
Nuvens dispersas a uma altura de 3000 ft
As informações contidas neste sítio estão sujeitas a uma declaração de exoneração de responsabilidade
Tempo : Europa África América do Norte América do Sul Ásia Austrália-Oceania Outros
Imagens de satélite Previsões 15 diasClimaMeteorologia maritima Ciclones Descargas eléctricas AeroportosFAQ Línguas Contacto Notícias Sobre